createdAt,value
2023-11-12T00:04:19.346Z,17.80
2023-11-12T00:09:20.891Z,14.35
2023-11-12T00:14:22.421Z,13.18
2023-11-12T00:19:24.864Z,13.55
2023-11-12T00:24:28.947Z,19.90
2023-11-12T00:29:30.496Z,11.93
2023-11-12T00:34:32.073Z,14.57
2023-11-12T00:39:33.665Z,14.40
2023-11-12T00:44:36.643Z,16.02
2023-11-12T00:49:38.129Z,15.68
2023-11-12T00:54:39.655Z,12.65
2023-11-12T00:59:41.250Z,15.98
2023-11-12T01:04:43.292Z,15.32
2023-11-12T01:09:47.376Z,15.57
2023-11-12T01:14:50.142Z,15.88
2023-11-12T01:19:51.718Z,13.70
2023-11-12T01:24:53.335Z,14.60
2023-11-12T01:29:54.918Z,10.95
2023-11-12T01:34:56.948Z,14.50
2023-11-12T01:39:58.735Z,10.98
2023-11-12T01:45:01.093Z,13.80
2023-11-12T01:50:04.654Z,11.30
2023-11-12T01:55:08.680Z,12.43
2023-11-12T02:00:17.098Z,12.35
2023-11-12T02:05:18.949Z,12.15
2023-11-12T02:10:20.495Z,10.50
2023-11-12T02:15:22.180Z,10.52
2023-11-12T02:20:23.736Z,9.10
2023-11-12T02:25:25.354Z,8.05
2023-11-12T02:30:27.330Z,9.05
2023-11-12T02:35:30.575Z,8.02
2023-11-12T02:40:32.273Z,8.20
2023-11-12T02:45:33.913Z,7.93
2023-11-12T02:50:36.744Z,10.50
2023-11-12T02:55:38.562Z,10.00
2023-11-12T03:00:40.194Z,8.23
2023-11-12T03:05:41.798Z,8.70
2023-11-12T03:10:43.585Z,7.35
2023-11-12T03:15:45.322Z,9.48
2023-11-12T03:20:47.332Z,7.50
2023-11-12T03:25:49.657Z,7.50
2023-11-12T03:30:51.334Z,7.82
2023-11-12T03:35:52.904Z,8.50
2023-11-12T03:40:54.380Z,9.15
2023-11-12T03:45:55.875Z,10.00
2023-11-12T03:50:57.399Z,10.15
2023-11-12T03:55:58.916Z,8.82
2023-11-12T04:01:01.226Z,7.60
2023-11-12T04:06:02.904Z,9.10
2023-11-12T04:11:04.629Z,10.88
2023-11-12T04:16:07.154Z,13.43
2023-11-12T04:21:09.357Z,9.60
2023-11-12T04:26:12.051Z,8.77
2023-11-12T04:31:13.641Z,11.45
2023-11-12T04:36:15.763Z,11.05
2023-11-12T04:41:18.414Z,11.30
2023-11-12T04:46:20.828Z,9.70
2023-11-12T04:51:22.375Z,10.48
2023-11-12T04:56:23.891Z,12.45
2023-11-12T05:01:25.570Z,11.15
2023-11-12T05:06:29.848Z,12.80
2023-11-12T05:11:31.466Z,14.93
2023-11-12T05:16:33.006Z,13.68
2023-11-12T05:21:34.602Z,10.38
2023-11-12T05:26:36.417Z,11.60
2023-11-12T05:31:38.044Z,10.55
2023-11-12T05:36:41.060Z,13.02
2023-11-12T05:41:42.732Z,10.52
2023-11-12T05:46:44.321Z,14.55
2023-11-12T05:51:46.129Z,11.30
2023-11-12T05:56:47.719Z,11.90
2023-11-12T06:01:49.341Z,9.88
2023-11-12T06:06:50.944Z,14.80
2023-11-12T06:11:54.947Z,15.15
2023-11-12T06:16:56.465Z,12.23
2023-11-12T06:21:58.340Z,16.70
2023-11-12T06:27:00.031Z,14.30
2023-11-12T06:32:01.584Z,19.05
2023-11-12T06:37:04.241Z,20.25
2023-11-12T06:42:06.150Z,13.50
2023-11-12T06:47:07.801Z,22.52
2023-11-12T06:52:09.568Z,21.17
2023-11-12T06:57:11.461Z,19.80
2023-11-12T07:02:13.035Z,17.15
2023-11-12T07:07:17.007Z,19.65
2023-11-12T07:12:18.947Z,18.17
2023-11-12T07:17:20.589Z,17.40
2023-11-12T07:22:22.598Z,15.65
2023-11-12T07:27:24.255Z,14.02
2023-11-12T07:32:26.760Z,15.30
2023-11-12T07:37:28.400Z,19.85
2023-11-12T07:42:29.948Z,16.98
2023-11-12T07:47:31.643Z,20.88
2023-11-12T07:52:33.396Z,16.70
2023-11-12T07:57:37.001Z,19.85
2023-11-12T08:02:40.373Z,21.98
2023-11-12T08:07:42.297Z,27.10
2023-11-12T08:12:44.290Z,23.40
2023-11-12T08:17:47.214Z,25.52
2023-11-12T08:22:48.903Z,23.27
2023-11-12T08:27:50.529Z,30.30
2023-11-12T08:32:52.458Z,28.63
2023-11-12T08:37:54.123Z,27.92
2023-11-12T08:42:55.771Z,26.45
2023-11-12T08:47:57.329Z,30.52
2023-11-12T08:53:00.895Z,35.67
2023-11-12T08:58:02.456Z,34.20
2023-11-12T09:03:04.107Z,24.63
2023-11-12T09:08:05.627Z,27.60
2023-11-12T09:13:07.148Z,22.17
2023-11-12T09:18:08.819Z,21.02
2023-11-12T09:23:10.815Z,26.48
2023-11-12T09:28:12.959Z,24.00
2023-11-12T09:33:15.310Z,21.55
2023-11-12T09:38:16.906Z,23.35
2023-11-12T09:43:18.857Z,19.55
2023-11-12T09:48:37.111Z,22.52
2023-11-12T09:53:45.712Z,19.40
2023-11-12T09:58:47.410Z,19.55
2023-11-12T10:03:52.791Z,18.45
2023-11-12T10:08:54.594Z,22.35
2023-11-12T10:13:57.486Z,17.90
2023-11-12T10:19:13.188Z,21.30
2023-11-12T10:24:14.743Z,20.10
2023-11-12T10:29:21.947Z,17.63
2023-11-12T10:34:26.979Z,16.83
2023-11-12T10:40:06.244Z,16.25
2023-11-12T10:45:08.410Z,20.95
2023-11-12T10:50:10.372Z,17.77
2023-11-12T10:55:15.816Z,15.57
2023-11-12T11:00:21.184Z,15.45
2023-11-12T11:05:25.126Z,14.50
2023-11-12T11:10:28.176Z,14.10
2023-11-12T11:15:41.273Z,15.02
2023-11-12T11:21:06.875Z,14.73
2023-11-12T11:26:34.133Z,15.73
2023-11-12T11:31:37.700Z,15.43
2023-11-12T11:36:41.091Z,14.90
2023-11-12T11:42:07.485Z,15.07
2023-11-12T11:47:16.285Z,15.50
2023-11-12T11:52:25.890Z,13.07
2023-11-12T11:57:28.574Z,17.83
2023-11-12T12:02:43.855Z,19.08
2023-11-12T12:07:47.550Z,14.27
2023-11-12T12:12:49.702Z,17.48
2023-11-12T12:17:51.467Z,15.23
2023-11-12T12:22:53.993Z,15.30
2023-11-12T12:27:55.634Z,18.17
2023-11-12T12:32:58.876Z,15.77
2023-11-12T12:38:08.218Z,15.88
2023-11-12T12:43:11.721Z,19.20
2023-11-12T12:48:13.588Z,21.15
2023-11-12T12:53:19.008Z,18.27
2023-11-12T12:58:20.657Z,20.65
2023-11-12T13:03:28.165Z,15.50
2023-11-12T13:08:30.225Z,20.30
2023-11-12T13:13:32.140Z,20.13
2023-11-12T13:18:33.682Z,17.42
2023-11-12T13:23:37.278Z,17.58
2023-11-12T13:28:39.234Z,20.20
2023-11-12T13:33:42.646Z,21.80
2023-11-12T13:38:44.454Z,13.77
2023-11-12T13:43:46.009Z,15.90
2023-11-12T13:48:47.936Z,13.90
2023-11-12T13:53:50.210Z,14.32
2023-11-12T13:58:54.038Z,15.73
2023-11-12T14:03:56.512Z,16.65
2023-11-12T14:08:58.159Z,15.38
2023-11-12T14:13:59.755Z,14.48
2023-11-12T14:19:01.469Z,16.08
2023-11-12T14:24:03.636Z,16.00
2023-11-12T14:29:05.366Z,19.60
2023-11-12T14:34:13.312Z,17.02
2023-11-12T14:39:19.528Z,17.23
2023-11-12T14:44:23.353Z,19.52
2023-11-12T14:49:27.210Z,19.60
2023-11-12T14:54:30.542Z,25.77
2023-11-12T14:59:32.554Z,26.17
2023-11-12T15:04:34.211Z,33.03
2023-11-12T15:09:35.868Z,33.80
2023-11-12T15:14:37.655Z,31.15
2023-11-12T15:19:42.185Z,30.08
2023-11-12T15:24:44.660Z,31.35
2023-11-12T15:29:46.880Z,30.98
2023-11-12T15:34:48.451Z,28.88
2023-11-12T15:39:50.894Z,27.63
2023-11-12T15:44:52.505Z,25.15
2023-11-12T15:49:54.000Z,22.13
2023-11-12T15:54:57.109Z,25.15
2023-11-12T15:59:58.688Z,24.98
2023-11-12T16:05:00.400Z,22.10
2023-11-12T16:10:02.945Z,20.70
2023-11-12T16:15:06.692Z,31.88
2023-11-12T16:20:09.827Z,22.77
2023-11-12T16:25:12.549Z,24.08
2023-11-12T16:30:14.285Z,23.25
2023-11-12T16:35:15.883Z,22.35
2023-11-12T16:40:20.963Z,26.80
2023-11-12T16:45:23.831Z,22.90
2023-11-12T16:50:26.397Z,23.88
2023-11-12T16:55:27.958Z,27.80
2023-11-12T17:00:30.301Z,30.70
2023-11-12T17:05:33.300Z,37.85
2023-11-12T17:10:35.250Z,31.00
2023-11-12T17:15:37.599Z,26.00
2023-11-12T17:20:39.606Z,25.20
2023-11-12T17:25:43.012Z,33.45
2023-11-12T17:30:44.667Z,37.55
2023-11-12T17:35:47.207Z,40.63
2023-11-12T17:40:48.756Z,34.20
2023-11-12T17:45:52.922Z,35.58
2023-11-12T17:50:54.746Z,36.17
2023-11-12T17:55:56.302Z,42.70
2023-11-12T18:01:01.540Z,44.25
2023-11-12T18:06:03.776Z,51.42
2023-11-12T18:11:05.487Z,52.47
2023-11-12T18:16:08.890Z,57.40
2023-11-12T18:21:15.545Z,60.83
2023-11-12T18:26:18.724Z,56.97
2023-11-12T18:31:24.536Z,46.08
2023-11-12T18:36:26.240Z,46.13
2023-11-12T18:41:27.857Z,50.33
2023-11-12T18:46:29.450Z,50.92
2023-11-12T18:51:33.247Z,50.83
2023-11-12T18:56:35.656Z,48.78
2023-11-12T19:01:37.449Z,48.60
2023-11-12T19:06:41.898Z,52.15
2023-11-12T19:11:43.876Z,51.67
2023-11-12T19:16:46.489Z,48.38
2023-11-12T19:21:48.464Z,50.78
2023-11-12T19:26:51.798Z,61.13
2023-11-12T19:31:53.739Z,54.47
2023-11-12T19:36:55.655Z,60.78
2023-11-12T19:41:57.709Z,59.72
2023-11-12T19:46:59.361Z,50.83
2023-11-12T19:52:01.339Z,53.58
2023-11-12T19:57:03.023Z,58.72
2023-11-12T20:02:05.637Z,63.15
2023-11-12T20:07:07.311Z,58.08
2023-11-12T20:12:09.180Z,50.83
2023-11-12T20:17:12.742Z,58.70
2023-11-12T20:22:18.688Z,46.05
2023-11-12T20:27:21.061Z,43.97
2023-11-12T20:32:22.737Z,43.60
2023-11-12T20:37:25.171Z,43.72
2023-11-12T20:42:26.725Z,42.38
2023-11-12T20:47:28.594Z,42.33
2023-11-12T20:52:32.345Z,41.03
2023-11-12T20:57:33.964Z,44.20
2023-11-12T21:02:36.307Z,48.70
2023-11-12T21:07:37.965Z,50.60
2023-11-12T21:12:40.028Z,41.33
2023-11-12T21:17:43.309Z,52.55
2023-11-12T21:22:45.040Z,50.42
2023-11-12T21:27:48.306Z,54.55
2023-11-12T21:32:50.058Z,73.93
2023-11-12T21:37:52.198Z,47.63
2023-11-12T21:42:53.829Z,49.17
2023-11-12T21:47:55.544Z,50.42
2023-11-12T21:52:59.266Z,52.90
2023-11-12T21:58:01.319Z,48.42
2023-11-12T22:03:03.069Z,59.33
2023-11-12T22:08:05.487Z,65.03
2023-11-12T22:13:07.032Z,57.22
2023-11-12T22:18:08.693Z,48.88
2023-11-12T22:23:12.083Z,57.60
2023-11-12T22:28:14.003Z,53.55
2023-11-12T22:33:15.617Z,55.97
2023-11-12T22:38:17.137Z,53.65
2023-11-12T22:43:18.666Z,55.08
2023-11-12T22:48:20.268Z,56.92
2023-11-12T22:53:21.808Z,57.33
2023-11-12T22:58:23.468Z,61.90
2023-11-12T23:03:25.873Z,55.97
2023-11-12T23:08:28.032Z,53.97
2023-11-12T23:13:30.263Z,60.40
2023-11-12T23:18:31.816Z,74.25
2023-11-12T23:23:33.586Z,71.63
2023-11-12T23:28:36.340Z,62.60
2023-11-12T23:33:38.225Z,58.75
2023-11-12T23:38:39.769Z,58.50
2023-11-12T23:43:41.323Z,58.45
2023-11-12T23:48:42.883Z,64.85
2023-11-12T23:53:46.803Z,60.63
2023-11-12T23:58:48.311Z,57.22
